< < Back
Terminal Aerodrome Forecast


Current Version              Previous Versions:   1  2  3  4  5  6  7  8  9  

Terminal Aerodrome Forecast

656
FTUS44 KBMX 231100
TAFTCL
TAF
KTCL 231127Z 2312/2412 32006KT P6SM SCT050
     FM240300 00000KT P6SM SCT200=

Latest METAR

172
SAUS70 KWBC 231700 RRA
MTRTCL
METAR KTCL 231653Z 30006KT 7SM FEW047 34/21 A3002 RMK AO2 SLP161
T03440206


USA.gov is the U.S. government's official web portal to all federal, state and local government web resources and services.